Time;durP1;ratioP1;P1;durP2;ratioP2;P2;SDS_P1;SDS_P2;PMS_P1;PMS_P2;Temp;Humidity;BMP_temperature;BMP_pressure;BME280_temperature;BME280_humidity;BME280_pressure;Samples;Min_cycle;Max_cycle;Signal;HPM_P1;HPM_P2
2022/01/28 00:01:35;;;;;;;40.03;22.93;;;0.90;99.90;;;;;;5052679;28;20161;-84
2022/01/28 00:04:12;;;;;;;45.20;26.53;;;0.90;99.90;;;;;;5039547;28;20165;-86
2022/01/28 00:06:38;;;;;;;34.10;21.77;;;0.80;99.90;;;;;;5036900;28;20540;-87
2022/01/28 00:09:05;;;;;;;36.10;21.83;;;0.90;99.90;;;;;;5017039;28;20181;-87
2022/01/28 00:11:30;;;;;;;33.37;20.30;;;0.90;99.90;;;;;;5034755;28;20205;-86
2022/01/28 00:14:15;;;;;;;32.73;20.13;;;0.90;99.90;;;;;;5033975;28;20229;-87
2022/01/28 00:20:08;;;;;;;32.40;21.97;;;1.00;99.90;;;;;;5033968;28;20659;-86
2022/01/28 00:38:45;;;;;;;30.70;18.10;;;0.90;99.90;;;;;;5035947;28;20184;-85
2022/01/28 00:41:11;;;;;;;25.27;16.33;;;0.90;99.90;;;;;;5036296;28;20189;-86
2022/01/28 00:43:37;;;;;;;21.77;14.70;;;0.80;99.90;;;;;;5035644;28;20251;-86
2022/01/28 00:46:03;;;;;;;24.30;16.13;;;0.90;99.90;;;;;;5044944;28;20191;-85
2022/01/28 00:48:29;;;;;;;25.93;16.80;;;0.90;99.90;;;;;;5053600;28;20171;-85
2022/01/28 00:50:56;;;;;;;23.30;15.37;;;0.90;99.90;;;;;;5049044;28;20241;-86
2022/01/28 00:53:22;;;;;;;26.47;17.13;;;0.90;99.90;;;;;;5047519;28;20181;-86
2022/01/28 00:55:47;;;;;;;21.83;15.33;;;0.90;99.90;;;;;;5036964;28;20181;-86
2022/01/28 00:58:13;;;;;;;22.20;14.07;;;1.00;99.90;;;;;;5035205;28;20201;-87
2022/01/28 01:00:40;;;;;;;22.40;14.93;;;0.90;99.90;;;;;;5035244;28;20308;-85
2022/01/28 01:03:05;;;;;;;22.07;15.17;;;0.90;99.90;;;;;;5033568;28;20165;-85
2022/01/28 01:05:33;;;;;;;20.83;14.53;;;0.90;99.90;;;;;;5033329;28;20252;-85
2022/01/28 01:08:01;;;;;;;21.93;14.73;;;0.90;99.90;;;;;;5033333;28;20624;-86
2022/01/28 01:10:27;;;;;;;20.17;13.27;;;0.90;99.90;;;;;;5033553;28;20184;-85
2022/01/28 01:12:53;;;;;;;21.50;13.53;;;0.90;99.90;;;;;;5033929;28;20174;-86
2022/01/28 01:15:23;;;;;;;23.10;14.03;;;0.90;99.90;;;;;;5033366;28;20213;-86
2022/01/28 01:21:05;;;;;;;20.33;12.90;;;0.90;99.90;;;;;;4964768;29;20180;-84
2022/01/28 01:23:34;;;;;;;21.57;13.53;;;0.90;99.90;;;;;;4956241;29;20189;-86
2022/01/28 01:28:36;;;;;;;18.77;13.00;;;0.90;99.90;;;;;;4953454;29;20676;-86
2022/01/28 01:31:04;;;;;;;20.67;13.40;;;0.90;99.90;;;;;;4953119;29;20169;-86
2022/01/28 01:33:36;;;;;;;18.03;13.30;;;0.90;99.90;;;;;;4955047;29;20235;-87
2022/01/28 01:36:02;;;;;;;19.57;12.97;;;0.80;99.90;;;;;;4961905;28;20530;-87
2022/01/28 01:38:32;;;;;;;20.20;14.17;;;0.80;99.90;;;;;;4964177;29;20167;-85
2022/01/28 01:41:01;;;;;;;20.10;13.50;;;0.80;99.90;;;;;;4959004;29;20179;-88
2022/01/28 01:46:40;;;;;;;19.73;13.70;;;0.80;99.90;;;;;;4957964;29;20186;-87
2022/01/28 01:54:15;;;;;;;24.03;15.30;;;1.00;99.90;;;;;;4978010;28;20224;-87
2022/01/28 01:56:41;;;;;;;25.03;17.60;;;0.90;99.90;;;;;;5036465;28;20179;-86
2022/01/28 01:59:08;;;;;;;24.90;16.90;;;0.90;99.90;;;;;;5036893;28;20543;-87
2022/01/28 02:01:34;;;;;;;30.30;19.07;;;0.80;99.90;;;;;;5036720;28;20290;-87
2022/01/28 02:04:00;;;;;;;29.17;19.97;;;0.90;99.90;;;;;;5036367;28;20165;-88
2022/01/28 02:06:26;;;;;;;30.47;19.03;;;0.80;99.90;;;;;;5018319;28;20698;-87
2022/01/28 02:08:52;;;;;;;36.10;21.43;;;0.80;99.90;;;;;;5036250;28;20663;-87
2022/01/28 02:11:18;;;;;;;35.43;23.00;;;0.80;99.90;;;;;;5036190;28;20181;-87
2022/01/28 02:13:50;;;;;;;35.17;22.77;;;0.70;99.90;;;;;;5035722;28;20203;-87
2022/01/28 02:16:17;;;;;;;33.07;22.10;;;0.60;99.90;;;;;;5018451;28;20177;-87
2022/01/28 02:18:43;;;;;;;35.00;21.70;;;0.60;99.90;;;;;;5018302;28;20183;-87
2022/01/28 02:21:13;;;;;;;39.63;21.37;;;0.70;99.90;;;;;;5035676;28;20540;-87
2022/01/28 02:23:40;;;;;;;35.80;22.57;;;0.70;99.90;;;;;;5035857;28;20166;-87
2022/01/28 02:26:07;;;;;;;36.33;21.87;;;0.60;99.90;;;;;;5035806;28;20671;-87
2022/01/28 02:28:37;;;;;;;35.77;22.93;;;0.80;99.90;;;;;;5035575;28;20239;-87
2022/01/28 02:31:05;;;;;;;37.33;23.03;;;0.80;99.90;;;;;;5019094;28;20528;-87
2022/01/28 02:33:31;;;;;;;32.70;22.30;;;0.60;99.90;;;;;;5035621;28;20698;-87
2022/01/28 02:36:03;;;;;;;38.57;23.10;;;0.70;99.90;;;;;;5035557;28;20207;-87
2022/01/28 02:38:30;;;;;;;33.73;22.87;;;0.70;99.90;;;;;;5035500;28;20156;-86
2022/01/28 02:40:58;;;;;;;31.10;21.90;;;0.70;99.90;;;;;;5035406;28;20223;-87
2022/01/28 02:43:43;;;;;;;38.50;23.63;;;0.70;99.90;;;;;;5035285;28;20173;-88
2022/01/28 02:46:12;;;;;;;33.60;21.67;;;0.80;99.90;;;;;;5035035;28;20236;-85
2022/01/28 02:48:42;;;;;;;37.97;23.30;;;0.80;99.90;;;;;;5034706;28;20510;-84
2022/01/28 02:51:18;;;;;;;36.83;22.87;;;0.70;99.90;;;;;;5035019;28;20164;-85
2022/01/28 02:59:08;;;;;;;36.23;23.63;;;0.80;99.90;;;;;;4935708;29;20293;-85
2022/01/28 03:01:34;;;;;;;36.80;23.87;;;0.90;99.90;;;;;;4935608;29;20277;-86
2022/01/28 03:04:02;;;;;;;43.00;24.83;;;0.80;99.90;;;;;;4936787;29;20189;-87
2022/01/28 03:06:28;;;;;;;40.93;24.80;;;0.80;99.90;;;;;;4943766;29;20177;-88
2022/01/28 03:09:01;;;;;;;40.10;25.43;;;0.80;99.90;;;;;;4945661;29;20588;-87
2022/01/28 03:11:43;;;;;;;38.87;26.17;;;0.90;99.90;;;;;;4935762;29;20267;-87
2022/01/28 03:17:10;;;;;;;41.87;25.83;;;0.70;99.90;;;;;;4936334;29;20185;-87
2022/01/28 03:19:46;;;;;;;40.87;26.13;;;0.80;99.90;;;;;;4936438;29;20166;-88
2022/01/28 03:22:12;;;;;;;42.47;26.10;;;0.80;99.90;;;;;;4935816;29;20299;-88
2022/01/28 03:24:40;;;;;;;29.53;18.40;;;0.90;99.90;;;;;;4935157;29;20764;-87
2022/01/28 03:27:12;;;;;;;25.40;16.17;;;0.90;99.90;;;;;;4935043;29;20176;-87
2022/01/28 03:29:37;;;;;;;14.63;10.53;;;1.10;99.90;;;;;;4934928;29;20271;-87
2022/01/28 03:32:04;;;;;;;6.47;5.30;;;1.50;99.90;;;;;;4934953;29;20178;-87
2022/01/28 03:34:29;;;;;;;4.90;4.50;;;2.20;99.90;;;;;;4944272;28;20719;-87
2022/01/28 03:36:56;;;;;;;2.20;2.10;;;2.70;99.90;;;;;;5034417;28;20178;-87
2022/01/28 03:39:22;;;;;;;1.20;1.20;;;3.00;99.90;;;;;;5034095;28;20670;-88
2022/01/28 03:41:48;;;;;;;0.87;0.87;;;3.60;99.90;;;;;;5034020;28;20171;-87
2022/01/28 03:44:14;;;;;;;1.03;1.03;;;3.90;99.90;;;;;;5034503;28;20174;-87
2022/01/28 03:46:40;;;;;;;0.50;0.50;;;4.40;99.90;;;;;;5034380;28;20186;-88
2022/01/28 03:49:06;;;;;;;0.60;0.60;;;4.70;99.90;;;;;;5034006;28;20174;-88
2022/01/28 03:51:32;;;;;;;0.50;0.50;;;4.90;99.90;;;;;;5034067;28;20230;-87
2022/01/28 03:53:58;;;;;;;0.60;0.60;;;5.10;99.90;;;;;;5033939;28;20685;-86
2022/01/28 03:56:24;;;;;;;0.43;0.43;;;5.30;99.90;;;;;;5016213;28;20201;-88
2022/01/28 03:58:50;;;;;;;0.70;0.70;;;5.50;99.90;;;;;;5033832;28;20173;-88
2022/01/28 04:01:21;;;;;;;0.50;0.50;;;5.50;99.90;;;;;;5039120;28;20187;-87
2022/01/28 04:04:02;;;;;;;0.50;0.50;;;5.40;99.90;;;;;;5021920;28;20226;-85
2022/01/28 04:11:58;;;;;;;0.63;0.60;;;5.30;99.90;;;;;;5033948;28;20210;-88
2022/01/28 04:14:44;;;;;;;0.60;0.60;;;5.20;99.90;;;;;;5037373;28;20690;-88
2022/01/28 04:17:20;;;;;;;0.53;0.53;;;5.30;99.90;;;;;;5017271;28;20173;-88
2022/01/28 04:19:47;;;;;;;0.40;0.40;;;5.40;99.90;;;;;;5034969;28;20211;-88
2022/01/28 04:22:12;;;;;;;0.53;0.53;;;5.50;99.90;;;;;;5036624;28;20169;-88
2022/01/28 04:24:38;;;;;;;0.70;0.70;;;5.50;99.80;;;;;;5033561;28;20518;-88
2022/01/28 04:27:04;;;;;;;0.50;0.50;;;5.50;99.80;;;;;;5033641;28;20169;-89
2022/01/28 04:29:30;;;;;;;0.50;0.50;;;5.50;99.90;;;;;;5033466;28;20265;-88
2022/01/28 04:31:56;;;;;;;0.70;0.70;;;5.40;99.90;;;;;;5016057;28;20172;-87
2022/01/28 04:34:23;;;;;;;0.70;0.70;;;5.40;99.90;;;;;;5033422;28;20207;-88
2022/01/28 04:39:23;;;;;;;0.50;0.50;;;5.50;99.70;;;;;;5033264;28;20255;-85
2022/01/28 04:42:10;;;;;;;0.30;0.30;;;5.50;99.60;;;;;;5033645;28;20493;-85
2022/01/28 04:45:05;;;;;;;0.50;0.50;;;5.40;99.40;;;;;;5033554;28;20177;-87
2022/01/28 04:57:57;;;;;;;0.40;0.40;;;5.40;99.20;;;;;;5043942;28;20165;-88
2022/01/28 05:00:37;;;;;;;0.40;0.40;;;5.40;99.20;;;;;;5017621;28;20632;-86
2022/01/28 05:06:09;;;;;;;0.40;0.40;;;5.50;99.00;;;;;;5046350;28;20151;-85
2022/01/28 05:11:51;;;;;;;0.43;0.43;;;5.30;98.90;;;;;;5037938;28;20172;-86
2022/01/28 05:27:28;;;;;;;0.40;0.40;;;4.80;99.90;;;;;;5036550;28;20214;-85
2022/01/28 05:29:54;;;;;;;1.70;0.43;;;4.90;99.90;;;;;;5036195;28;20275;-84
2022/01/28 05:32:20;;;;;;;0.70;0.70;;;4.90;99.90;;;;;;5036623;28;20172;-86
2022/01/28 05:34:47;;;;;;;0.87;0.50;;;5.10;99.90;;;;;;5036530;28;20686;-85
2022/01/28 05:37:12;;;;;;;0.57;0.57;;;5.00;99.90;;;;;;5036772;28;20168;-84
2022/01/28 05:39:38;;;;;;;0.40;0.40;;;5.10;99.90;;;;;;5036389;28;20225;-88
2022/01/28 05:42:05;;;;;;;0.50;0.50;;;5.10;99.90;;;;;;5036254;28;20175;-87
2022/01/28 05:44:30;;;;;;;0.70;0.70;;;5.10;99.90;;;;;;5018458;28;20176;-88
2022/01/28 05:47:01;;;;;;;0.43;0.43;;;5.20;99.90;;;;;;5036395;28;20263;-88
2022/01/28 05:49:27;;;;;;;0.60;0.60;;;5.10;99.90;;;;;;5036688;28;20165;-88
2022/01/28 05:51:53;;;;;;;0.80;0.80;;;5.10;99.90;;;;;;5036366;28;20210;-87
2022/01/28 05:54:19;;;;;;;0.60;0.60;;;5.10;99.90;;;;;;5036266;28;20239;-85
2022/01/28 05:56:45;;;;;;;0.60;0.60;;;5.10;99.90;;;;;;5036262;28;20169;-88
2022/01/28 05:59:11;;;;;;;0.70;0.70;;;4.90;99.90;;;;;;5036020;28;20185;-88
2022/01/28 06:01:37;;;;;;;0.67;0.67;;;4.80;99.90;;;;;;5036282;28;20632;-87
2022/01/28 06:04:03;;;;;;;0.63;0.63;;;4.80;99.90;;;;;;5036092;28;20263;-88
2022/01/28 06:06:29;;;;;;;0.70;0.70;;;4.80;99.90;;;;;;5036070;28;20204;-88
2022/01/28 06:08:55;;;;;;;0.90;0.90;;;4.70;99.90;;;;;;5036258;28;20518;-87
2022/01/28 06:11:23;;;;;;;0.83;0.83;;;4.60;99.90;;;;;;5036150;28;20496;-88
2022/01/28 06:13:49;;;;;;;1.17;1.07;;;4.50;99.90;;;;;;5036786;28;20531;-87
2022/01/28 06:16:16;;;;;;;2.90;1.20;;;4.50;99.90;;;;;;5036279;28;20537;-89
2022/01/28 06:18:43;;;;;;;1.10;1.00;;;4.30;99.90;;;;;;5018122;28;20267;-86
2022/01/28 06:21:09;;;;;;;1.60;1.50;;;4.30;99.90;;;;;;5035525;28;20204;-87
2022/01/28 06:23:35;;;;;;;2.47;1.43;;;4.20;99.90;;;;;;5035835;28;20179;-86
2022/01/28 06:26:02;;;;;;;1.93;1.10;;;4.20;99.90;;;;;;5038188;28;20187;-87
2022/01/28 06:28:28;;;;;;;1.37;1.27;;;4.10;99.90;;;;;;5044327;28;20242;-88
2022/01/28 06:30:54;;;;;;;2.40;1.80;;;4.10;99.90;;;;;;5022714;28;20179;-88
2022/01/28 06:33:23;;;;;;;2.63;2.43;;;4.10;99.90;;;;;;5019179;28;20180;-87
2022/01/28 06:35:49;;;;;;;2.00;1.90;;;4.10;99.90;;;;;;5036062;28;20310;-88
2022/01/28 06:38:16;;;;;;;2.13;1.93;;;4.00;99.90;;;;;;5035623;28;20179;-88
2022/01/28 06:40:43;;;;;;;1.37;1.37;;;4.00;99.90;;;;;;5020014;28;20177;-87
2022/01/28 06:43:10;;;;;;;1.90;1.40;;;3.90;99.90;;;;;;5047651;28;20176;-86
2022/01/28 06:45:39;;;;;;;1.60;1.50;;;3.90;99.90;;;;;;5045193;28;20177;-88
2022/01/28 06:48:07;;;;;;;3.33;1.60;;;3.90;99.90;;;;;;5018227;28;20264;-88
2022/01/28 06:50:34;;;;;;;1.60;1.50;;;4.00;99.90;;;;;;5036551;28;20171;-87
2022/01/28 06:53:00;;;;;;;2.20;1.70;;;4.00;99.90;;;;;;5035926;28;20181;-85
2022/01/28 06:55:26;;;;;;;1.80;1.70;;;3.90;99.90;;;;;;5017433;28;20237;-86
2022/01/28 06:57:54;;;;;;;1.47;1.40;;;3.90;99.90;;;;;;5037055;28;20172;-84
2022/01/28 07:00:23;;;;;;;3.53;1.60;;;3.90;99.90;;;;;;5050717;28;20172;-84
2022/01/28 07:02:50;;;;;;;1.40;1.30;;;3.80;99.90;;;;;;5051964;28;20169;-85
2022/01/28 07:05:16;;;;;;;1.57;1.47;;;3.80;99.90;;;;;;5041142;28;20636;-84
2022/01/28 07:07:42;;;;;;;2.30;2.20;;;3.80;99.90;;;;;;5041190;28;20176;-87
2022/01/28 07:10:08;;;;;;;1.80;1.60;;;3.80;99.90;;;;;;5039238;28;20173;-85
2022/01/28 07:12:35;;;;;;;2.03;1.90;;;3.80;99.90;;;;;;5036022;28;20174;-84
2022/01/28 07:15:00;;;;;;;2.03;1.93;;;3.80;99.90;;;;;;5016849;28;20662;-88
2022/01/28 07:17:26;;;;;;;2.10;2.00;;;3.80;99.90;;;;;;5035137;28;20172;-88
2022/01/28 07:19:52;;;;;;;5.37;1.70;;;3.80;99.90;;;;;;5034843;28;20191;-88
2022/01/28 07:22:18;;;;;;;1.80;1.70;;;3.80;99.90;;;;;;5016611;28;20176;-88
2022/01/28 07:24:44;;;;;;;1.70;1.60;;;3.70;99.90;;;;;;5034304;28;20208;-84
2022/01/28 07:27:10;;;;;;;7.33;2.20;;;3.70;99.90;;;;;;5034121;28;20616;-87
2022/01/28 07:29:36;;;;;;;2.80;2.60;;;3.70;99.90;;;;;;5033968;28;20222;-85
2022/01/28 07:32:04;;;;;;;2.83;2.10;;;3.80;99.90;;;;;;5034011;28;20205;-86
2022/01/28 07:34:30;;;;;;;3.80;2.47;;;3.90;99.90;;;;;;5033835;28;20239;-88
2022/01/28 07:36:56;;;;;;;2.90;2.17;;;3.80;99.90;;;;;;5034149;28;20271;-86
2022/01/28 07:39:22;;;;;;;1.50;1.50;;;3.90;99.90;;;;;;5034160;28;20267;-85
2022/01/28 07:41:48;;;;;;;1.87;1.73;;;4.00;99.90;;;;;;5034542;28;20504;-86
2022/01/28 07:44:14;;;;;;;1.63;1.60;;;4.00;99.90;;;;;;5016310;28;20707;-86
2022/01/28 07:46:40;;;;;;;1.90;1.50;;;4.00;99.90;;;;;;5034528;28;20643;-87
2022/01/28 07:49:06;;;;;;;3.60;2.00;;;4.10;99.90;;;;;;5033848;28;20173;-87
2022/01/28 07:51:32;;;;;;;1.80;1.70;;;4.30;99.90;;;;;;5034019;28;20700;-85
2022/01/28 07:53:58;;;;;;;3.43;2.77;;;4.50;99.90;;;;;;5034356;28;20192;-86
2022/01/28 07:56:24;;;;;;;4.27;2.13;;;4.70;99.90;;;;;;5033681;28;20283;-86
2022/01/28 07:58:50;;;;;;;4.20;2.63;;;4.70;99.90;;;;;;5033767;28;20624;-86
2022/01/28 08:01:16;;;;;;;2.60;1.50;;;4.90;99.90;;;;;;5033733;28;20173;-88
2022/01/28 08:03:42;;;;;;;2.87;1.60;;;5.00;99.90;;;;;;5033918;28;20535;-88
2022/01/28 08:06:08;;;;;;;1.83;1.73;;;4.90;99.90;;;;;;5016396;28;20212;-87
2022/01/28 08:08:34;;;;;;;2.50;1.90;;;4.90;99.90;;;;;;5033860;28;20195;-86
2022/01/28 08:11:00;;;;;;;2.40;1.70;;;4.90;99.90;;;;;;5015716;28;20180;-87
2022/01/28 08:13:26;;;;;;;2.33;1.67;;;5.00;99.90;;;;;;5033535;28;20173;-87
2022/01/28 08:15:52;;;;;;;2.17;1.90;;;5.00;99.90;;;;;;5033558;28;20263;-88
2022/01/28 08:18:17;;;;;;;2.20;1.90;;;5.10;99.90;;;;;;5033535;28;20170;-88
2022/01/28 08:20:46;;;;;;;2.50;1.70;;;5.20;99.90;;;;;;5033732;28;20708;-88
2022/01/28 08:23:13;;;;;;;6.77;1.30;;;5.30;99.90;;;;;;5034112;28;20211;-88
2022/01/28 08:25:39;;;;;;;1.20;1.20;;;5.60;98.30;;;;;;5033931;28;20182;-88
2022/01/28 08:28:05;;;;;;;1.20;1.20;;;5.80;97.70;;;;;;5036823;28;20172;-87
2022/01/28 08:30:32;;;;;;;0.70;0.70;;;6.00;96.70;;;;;;5035794;28;20210;-87
2022/01/28 08:32:59;;;;;;;1.13;1.07;;;6.20;96.20;;;;;;5044886;28;20205;-86
2022/01/28 08:35:30;;;;;;;0.70;0.70;;;6.30;96.40;;;;;;5029508;28;20223;-88
2022/01/28 08:37:58;;;;;;;1.30;0.70;;;6.30;95.80;;;;;;5034958;28;20163;-88
2022/01/28 08:40:25;;;;;;;0.90;0.90;;;6.40;95.50;;;;;;5034124;28;20183;-88
2022/01/28 08:42:51;;;;;;;0.80;0.80;;;6.50;94.90;;;;;;5034015;28;20172;-88
2022/01/28 08:45:17;;;;;;;0.53;0.53;;;6.50;94.00;;;;;;5035259;28;20635;-87
2022/01/28 08:47:43;;;;;;;0.70;0.70;;;6.50;93.90;;;;;;5037637;28;20223;-87
2022/01/28 08:50:10;;;;;;;1.97;0.70;;;6.50;94.00;;;;;;5038349;28;20176;-87
2022/01/28 08:52:36;;;;;;;0.50;0.50;;;6.50;94.20;;;;;;5019729;28;20184;-85
2022/01/28 08:55:04;;;;;;;1.03;0.60;;;6.50;94.40;;;;;;5041747;28;20213;-87
2022/01/28 08:57:30;;;;;;;2.17;0.80;;;6.40;94.50;;;;;;5045488;28;20649;-87
2022/01/28 08:59:56;;;;;;;0.73;0.60;;;6.20;94.70;;;;;;5038136;28;20181;-86
2022/01/28 09:02:21;;;;;;;0.50;0.50;;;6.10;95.00;;;;;;5038788;28;20173;-87
2022/01/28 09:04:48;;;;;;;1.33;0.70;;;6.00;95.30;;;;;;5038515;28;20215;-88
2022/01/28 09:07:14;;;;;;;0.60;0.60;;;6.00;95.60;;;;;;5038336;28;20183;-86
2022/01/28 09:09:48;;;;;;;0.90;0.70;;;5.90;95.70;;;;;;5038390;28;20177;-87
2022/01/28 09:12:39;;;;;;;1.77;0.77;;;5.90;95.80;;;;;;5020345;28;20168;-86
2022/01/28 09:15:03;;;;;;;1.10;1.10;;;5.90;95.90;;;;;;5037505;28;20216;-83
2022/01/28 09:17:29;;;;;;;0.70;0.70;;;5.90;95.90;;;;;;5020956;28;20670;-87
2022/01/28 09:19:55;;;;;;;1.23;0.80;;;5.90;95.90;;;;;;5037423;28;20180;-85
2022/01/28 09:22:21;;;;;;;2.47;0.80;;;5.90;95.90;;;;;;5037546;28;20200;-86
2022/01/28 09:24:47;;;;;;;0.40;0.40;;;5.90;96.00;;;;;;5037829;28;20180;-87
2022/01/28 09:27:13;;;;;;;0.77;0.77;;;5.90;95.90;;;;;;5037771;28;20225;-87
2022/01/28 09:29:39;;;;;;;0.87;0.87;;;5.90;96.00;;;;;;5038646;28;20263;-87
2022/01/28 09:32:05;;;;;;;1.07;0.80;;;5.80;96.10;;;;;;5044539;28;20701;-85
2022/01/28 09:34:31;;;;;;;2.20;0.93;;;5.90;96.00;;;;;;5046798;28;20192;-82
2022/01/28 09:36:57;;;;;;;1.07;0.67;;;6.00;95.90;;;;;;5039195;28;20535;-83
2022/01/28 09:39:24;;;;;;;0.50;0.50;;;6.00;95.70;;;;;;5038049;28;20173;-84
2022/01/28 09:41:52;;;;;;;1.13;0.63;;;6.00;95.80;;;;;;5039418;28;20219;-86
2022/01/28 09:44:19;;;;;;;1.53;0.80;;;6.00;95.80;;;;;;5043520;28;20181;-86
2022/01/28 09:46:45;;;;;;;2.53;0.80;;;6.00;95.70;;;;;;5040278;28;20240;-87
2022/01/28 09:49:12;;;;;;;1.03;0.67;;;6.10;95.60;;;;;;5052273;28;20255;-87
2022/01/28 09:51:38;;;;;;;2.10;0.83;;;6.10;95.60;;;;;;5057661;28;20182;-87
2022/01/28 09:54:04;;;;;;;0.40;0.40;;;6.10;95.20;;;;;;5032103;28;20208;-87
2022/01/28 09:56:31;;;;;;;0.70;0.70;;;6.10;95.70;;;;;;5041397;28;20165;-88
2022/01/28 09:58:58;;;;;;;1.90;1.30;;;6.20;95.30;;;;;;5039588;28;20189;-88
2022/01/28 10:01:26;;;;;;;0.73;0.73;;;6.40;94.90;;;;;;5036919;28;20217;-88
2022/01/28 10:04:06;;;;;;;0.67;0.67;;;6.40;95.20;;;;;;5036835;28;20630;-87
2022/01/28 10:06:33;;;;;;;2.13;0.90;;;6.30;95.30;;;;;;5037151;28;20177;-86
2022/01/28 10:09:05;;;;;;;2.33;0.80;;;6.40;94.90;;;;;;5036638;28;20272;-86
2022/01/28 10:11:31;;;;;;;0.50;0.50;;;6.50;94.10;;;;;;5036452;28;20164;-87
2022/01/28 10:14:10;;;;;;;0.87;0.70;;;6.60;94.00;;;;;;5036553;28;20255;-87
2022/01/28 10:16:36;;;;;;;0.77;0.70;;;6.60;93.70;;;;;;5036088;28;20176;-86
2022/01/28 10:19:11;;;;;;;0.57;0.57;;;6.70;92.80;;;;;;5036120;28;20174;-86
2022/01/28 10:21:43;;;;;;;0.60;0.60;;;6.70;92.30;;;;;;5038555;28;20176;-86
2022/01/28 10:24:16;;;;;;;0.60;0.60;;;6.60;92.60;;;;;;5029147;28;20192;-85
2022/01/28 10:26:49;;;;;;;0.57;0.40;;;6.70;92.10;;;;;;5045850;28;20245;-86
2022/01/28 10:29:23;;;;;;;0.57;0.57;;;6.80;91.40;;;;;;5018894;28;20224;-86
2022/01/28 10:31:52;;;;;;;1.10;0.57;;;6.80;90.90;;;;;;5018559;28;20169;-85
2022/01/28 10:34:26;;;;;;;1.03;0.80;;;6.90;90.70;;;;;;5035831;28;20304;-85
2022/01/28 10:37:39;;;;;;;1.13;0.70;;;6.90;90.30;;;;;;5036022;28;20160;-87
2022/01/28 10:40:09;;;;;;;0.80;0.60;;;7.00;89.70;;;;;;4936612;29;20208;-86
2022/01/28 10:42:48;;;;;;;2.47;0.60;;;7.10;89.00;;;;;;4936430;29;20567;-86
2022/01/28 10:45:17;;;;;;;1.40;0.57;;;7.30;88.60;;;;;;4936177;29;20298;-87
2022/01/28 10:47:46;;;;;;;0.50;0.50;;;7.30;87.90;;;;;;4936125;29;20176;-85
2022/01/28 10:50:30;;;;;;;0.50;0.50;;;7.30;87.90;;;;;;4937849;29;20187;-85
2022/01/28 10:52:59;;;;;;;0.60;0.60;;;7.40;87.90;;;;;;4936364;29;20166;-84
2022/01/28 10:55:25;;;;;;;0.50;0.50;;;7.40;87.20;;;;;;4935851;29;20222;-84
2022/01/28 10:58:02;;;;;;;0.60;0.60;;;7.30;87.50;;;;;;4935802;29;20225;-85
2022/01/28 11:00:35;;;;;;;0.77;0.77;;;7.30;87.70;;;;;;4935776;29;20174;-85
2022/01/28 11:03:04;;;;;;;2.10;0.90;;;7.20;87.70;;;;;;4936126;29;20187;-84
2022/01/28 11:05:32;;;;;;;0.90;0.90;;;7.20;87.70;;;;;;4935928;29;20270;-87
2022/01/28 11:08:00;;;;;;;0.70;0.70;;;7.20;87.90;;;;;;4918930;29;20259;-87
2022/01/28 11:10:26;;;;;;;2.27;1.00;;;7.10;87.70;;;;;;4935616;29;20179;-86
2022/01/28 11:12:52;;;;;;;0.73;0.60;;;7.20;87.90;;;;;;4935796;29;20188;-85
2022/01/28 11:15:20;;;;;;;2.50;1.17;;;7.10;88.00;;;;;;4971458;28;20303;-84
2022/01/28 11:17:48;;;;;;;0.63;0.63;;;7.00;88.10;;;;;;5035354;28;20630;-85
2022/01/28 11:20:20;;;;;;;0.40;0.40;;;6.90;86.90;;;;;;5035162;28;20173;-83
2022/01/28 11:22:55;;;;;;;1.00;0.77;;;6.90;87.40;;;;;;5017544;28;20536;-86
2022/01/28 11:25:36;;;;;;;0.70;0.70;;;7.00;87.50;;;;;;5038410;28;20161;-86
2022/01/28 11:28:11;;;;;;;0.50;0.50;;;7.00;87.60;;;;;;5040902;28;20164;-86
2022/01/28 11:30:47;;;;;;;1.30;0.70;;;7.00;86.70;;;;;;5036272;28;20167;-88
2022/01/28 11:33:14;;;;;;;1.10;0.63;;;7.00;86.00;;;;;;5036190;28;20157;-87
2022/01/28 11:35:45;;;;;;;3.73;0.77;;;7.10;85.50;;;;;;5035739;28;20602;-87
2022/01/28 11:38:27;;;;;;;0.93;0.80;;;7.10;84.90;;;;;;5036174;28;20168;-86
2022/01/28 11:40:59;;;;;;;0.70;0.70;;;7.20;85.30;;;;;;5054370;28;20168;-87
2022/01/28 11:43:30;;;;;;;0.70;0.60;;;7.40;85.10;;;;;;5048050;28;20195;-87
2022/01/28 11:46:06;;;;;;;0.77;0.77;;;7.60;84.00;;;;;;5051229;28;20171;-85
2022/01/28 11:49:08;;;;;;;0.70;0.70;;;7.60;83.90;;;;;;5039754;28;20173;-87
2022/01/28 11:51:41;;;;;;;2.07;0.60;;;7.50;84.00;;;;;;4983253;28;20272;-85
2022/01/28 11:54:18;;;;;;;0.67;0.67;;;7.30;84.50;;;;;;5035019;28;20258;-86
2022/01/28 11:56:56;;;;;;;0.70;0.70;;;7.00;84.40;;;;;;5034603;28;20162;-85
2022/01/28 11:59:26;;;;;;;1.50;0.70;;;6.80;85.60;;;;;;5034503;28;20175;-87
2022/01/28 12:01:52;;;;;;;1.03;0.80;;;6.70;86.20;;;;;;5035070;28;20237;-87
2022/01/28 12:04:27;;;;;;;0.60;0.60;;;6.60;89.00;;;;;;5036009;28;20295;-87
2022/01/28 12:06:58;;;;;;;0.80;0.80;;;6.60;89.40;;;;;;5016589;28;20183;-88
2022/01/28 12:09:25;;;;;;;0.90;0.90;;;6.60;89.50;;;;;;5034067;28;20192;-86
2022/01/28 12:11:51;;;;;;;0.60;0.60;;;6.50;89.50;;;;;;5037069;28;20173;-87
2022/01/28 12:14:18;;;;;;;2.73;0.80;;;6.50;87.90;;;;;;5041051;28;20270;-86
2022/01/28 12:16:48;;;;;;;1.20;1.10;;;6.50;88.20;;;;;;5046715;28;20202;-86
2022/01/28 12:19:19;;;;;;;1.50;0.90;;;6.50;87.80;;;;;;5038537;28;20175;-86
2022/01/28 12:22:10;;;;;;;0.80;0.80;;;6.50;85.90;;;;;;5034689;28;20161;-85
2022/01/28 12:24:37;;;;;;;0.60;0.60;;;6.50;84.80;;;;;;5034329;28;20276;-86
2022/01/28 12:27:08;;;;;;;2.43;0.87;;;6.50;82.50;;;;;;5034009;28;20594;-86
2022/01/28 12:29:36;;;;;;;0.50;0.50;;;6.70;83.30;;;;;;5033929;28;20258;-86
2022/01/28 12:32:04;;;;;;;0.77;0.77;;;6.70;82.30;;;;;;5034718;28;20172;-86
2022/01/28 12:34:30;;;;;;;0.73;0.60;;;6.70;82.60;;;;;;5016353;28;20573;-86
2022/01/28 12:36:58;;;;;;;1.60;0.80;;;6.80;82.70;;;;;;5015880;28;20177;-87
2022/01/28 12:39:33;;;;;;;0.80;0.80;;;6.80;83.00;;;;;;5033833;28;20200;-86
2022/01/28 12:42:23;;;;;;;0.60;0.60;;;6.90;82.80;;;;;;5033961;28;20684;-87
2022/01/28 12:44:59;;;;;;;1.00;1.00;;;7.00;81.60;;;;;;5033715;28;20173;-86
2022/01/28 12:47:31;;;;;;;1.27;0.77;;;7.10;81.00;;;;;;5033590;28;20167;-85
2022/01/28 12:50:03;;;;;;;0.87;0.87;;;7.00;81.30;;;;;;5033627;28;20511;-85
2022/01/28 12:52:33;;;;;;;1.13;1.10;;;6.80;82.10;;;;;;5033768;28;20163;-84
2022/01/28 12:54:59;;;;;;;1.60;0.57;;;6.70;82.60;;;;;;5033371;28;20617;-87
2022/01/28 12:57:25;;;;;;;0.90;0.90;;;6.60;83.40;;;;;;5015898;28;20264;-86
2022/01/28 12:59:51;;;;;;;0.63;0.63;;;6.50;83.70;;;;;;5015758;28;20182;-85
2022/01/28 13:02:18;;;;;;;0.60;0.60;;;6.60;83.80;;;;;;5033353;28;20180;-83
2022/01/28 13:05:10;;;;;;;2.27;0.97;;;6.60;84.10;;;;;;5033564;28;20231;-87
2022/01/28 13:10:32;;;;;;;0.80;0.80;;;6.70;83.60;;;;;;5033715;28;20219;-87
2022/01/28 13:13:09;;;;;;;1.27;0.80;;;6.70;84.10;;;;;;5033870;28;20166;-86
2022/01/28 13:15:36;;;;;;;1.23;0.90;;;6.70;84.40;;;;;;5034134;28;20656;-87
2022/01/28 13:18:04;;;;;;;0.70;0.70;;;6.80;84.70;;;;;;5033656;28;20539;-86
2022/01/28 13:20:39;;;;;;;1.00;1.00;;;6.90;84.40;;;;;;5034048;28;20176;-87
2022/01/28 13:23:06;;;;;;;0.83;0.83;;;7.10;84.10;;;;;;5034455;28;20627;-87
2022/01/28 13:25:32;;;;;;;1.97;0.80;;;7.00;84.20;;;;;;5034388;28;20169;-87
2022/01/28 13:28:05;;;;;;;0.60;0.60;;;7.20;84.30;;;;;;5034491;28;20165;-86
2022/01/28 13:30:35;;;;;;;0.57;0.57;;;7.20;83.50;;;;;;5034986;28;20175;-86
2022/01/28 13:33:09;;;;;;;0.93;0.93;;;7.20;83.90;;;;;;5022279;28;20215;-86
2022/01/28 13:35:37;;;;;;;1.80;0.50;;;7.20;84.60;;;;;;5057991;28;20272;-86
2022/01/28 13:38:24;;;;;;;0.70;0.70;;;7.20;84.50;;;;;;5055556;28;20216;-86
2022/01/28 13:40:50;;;;;;;0.70;0.70;;;7.10;86.40;;;;;;5054841;28;20181;-86
2022/01/28 13:43:22;;;;;;;0.60;0.60;;;7.00;86.30;;;;;;5041199;28;20198;-86
2022/01/28 13:45:54;;;;;;;0.60;0.60;;;6.90;87.00;;;;;;5037563;28;20161;-87
2022/01/28 13:48:32;;;;;;;0.60;0.60;;;6.60;87.20;;;;;;5037096;28;20175;-84
2022/01/28 13:51:08;;;;;;;0.50;0.50;;;6.40;88.70;;;;;;5037143;28;20214;-86
2022/01/28 13:56:35;;;;;;;0.87;0.87;;;6.10;89.80;;;;;;5047430;28;20195;-86
2022/01/28 13:59:08;;;;;;;0.93;0.93;;;6.00;90.40;;;;;;5038886;28;20191;-86
2022/01/28 14:01:35;;;;;;;0.90;0.90;;;6.00;90.60;;;;;;5037436;28;20169;-86
2022/01/28 14:04:03;;;;;;;1.40;1.00;;;5.90;90.90;;;;;;5022662;28;20181;-87
2022/01/28 14:06:31;;;;;;;0.70;0.70;;;5.90;90.80;;;;;;5047297;28;20180;-87
2022/01/28 14:09:14;;;;;;;0.70;0.70;;;5.90;91.20;;;;;;5049756;28;20215;-86
2022/01/28 14:11:51;;;;;;;0.40;0.40;;;5.90;90.90;;;;;;5039031;28;20229;-86
2022/01/28 14:17:01;;;;;;;0.60;0.60;;;5.70;90.60;;;;;;5036064;28;20160;-87
2022/01/28 14:19:30;;;;;;;0.60;0.60;;;5.80;90.50;;;;;;5018058;28;20280;-84
2022/01/28 14:21:57;;;;;;;1.00;0.70;;;5.80;90.40;;;;;;5035621;28;20179;-86
2022/01/28 14:24:26;;;;;;;1.17;0.63;;;5.80;90.00;;;;;;5035651;28;20181;-85
2022/01/28 14:27:24;;;;;;;0.70;0.70;;;5.80;90.10;;;;;;5035577;28;20180;-84
2022/01/28 14:32:12;;;;;;;0.67;0.67;;;5.80;90.10;;;;;;5035593;28;20242;-84
2022/01/28 14:34:39;;;;;;;0.60;0.60;;;5.80;90.20;;;;;;5035487;28;20242;-84